sensor_id;sensor_type;location;lat;lon;timestamp;pressure;altitude;pressure_sealevel;temperature;humidity
62926;BME280;55732;52.248;-0.844;2022-07-24T00:01:34;100686.94;;;19.46;67.11
62926;BME280;55732;52.248;-0.844;2022-07-24T00:03:59;100689.48;;;19.45;67.32
62926;BME280;55732;52.248;-0.844;2022-07-24T00:06:25;100687.56;;;19.43;67.45
62926;BME280;55732;52.248;-0.844;2022-07-24T00:08:51;100682.30;;;19.40;67.58
62926;BME280;55732;52.248;-0.844;2022-07-24T00:11:17;100692.27;;;19.41;67.67
62926;BME280;55732;52.248;-0.844;2022-07-24T00:13:42;100695.27;;;19.42;67.92
62926;BME280;55732;52.248;-0.844;2022-07-24T00:16:08;100694.87;;;19.43;68.05
62926;BME280;55732;52.248;-0.844;2022-07-24T00:18:34;100692.74;;;19.43;67.93
62926;BME280;55732;52.248;-0.844;2022-07-24T00:20:59;100689.40;;;19.41;68.09
62926;BME280;55732;52.248;-0.844;2022-07-24T00:23:25;100681.37;;;19.41;68.21
62926;BME280;55732;52.248;-0.844;2022-07-24T00:25:52;100679.92;;;19.42;68.28
62926;BME280;55732;52.248;-0.844;2022-07-24T00:28:18;100678.17;;;19.41;68.36
62926;BME280;55732;52.248;-0.844;2022-07-24T00:30:43;100677.89;;;19.39;68.50
62926;BME280;55732;52.248;-0.844;2022-07-24T00:33:09;100674.56;;;19.37;68.48
62926;BME280;55732;52.248;-0.844;2022-07-24T00:35:35;100670.11;;;19.36;68.59
62926;BME280;55732;52.248;-0.844;2022-07-24T00:38:01;100663.13;;;19.37;68.59
62926;BME280;55732;52.248;-0.844;2022-07-24T00:40:27;100658.25;;;19.38;68.50
62926;BME280;55732;52.248;-0.844;2022-07-24T00:42:52;100660.04;;;19.38;68.65
62926;BME280;55732;52.248;-0.844;2022-07-24T00:45:18;100657.92;;;19.38;68.75
62926;BME280;55732;52.248;-0.844;2022-07-24T00:47:44;100656.48;;;19.38;68.66
62926;BME280;55732;52.248;-0.844;2022-07-24T00:50:10;100654.86;;;19.38;68.64
62926;BME280;55732;52.248;-0.844;2022-07-24T00:52:35;100653.61;;;19.38;68.58
62926;BME280;55732;52.248;-0.844;2022-07-24T00:55:01;100655.42;;;19.38;68.63
62926;BME280;55732;52.248;-0.844;2022-07-24T00:57:27;100655.12;;;19.36;68.53
62926;BME280;55732;52.248;-0.844;2022-07-24T00:59:53;100651.20;;;19.31;68.56
62926;BME280;55732;52.248;-0.844;2022-07-24T01:02:19;100648.64;;;19.28;68.65
62926;BME280;55732;52.248;-0.844;2022-07-24T01:04:44;100639.34;;;19.24;68.70
62926;BME280;55732;52.248;-0.844;2022-07-24T01:07:11;100633.06;;;19.20;68.73
62926;BME280;55732;52.248;-0.844;2022-07-24T01:09:36;100623.37;;;19.16;68.81
62926;BME280;55732;52.248;-0.844;2022-07-24T01:12:02;100614.02;;;19.13;68.80
62926;BME280;55732;52.248;-0.844;2022-07-24T01:14:31;100612.39;;;19.09;68.93
62926;BME280;55732;52.248;-0.844;2022-07-24T01:16:56;100621.61;;;19.06;69.06
62926;BME280;55732;52.248;-0.844;2022-07-24T01:19:22;100618.47;;;19.03;69.21
62926;BME280;55732;52.248;-0.844;2022-07-24T01:21:49;100613.38;;;19.01;69.19
62926;BME280;55732;52.248;-0.844;2022-07-24T01:24:15;100620.80;;;18.98;69.19
62926;BME280;55732;52.248;-0.844;2022-07-24T01:26:40;100619.09;;;18.96;69.33
62926;BME280;55732;52.248;-0.844;2022-07-24T01:29:06;100618.27;;;18.94;69.36
62926;BME280;55732;52.248;-0.844;2022-07-24T01:31:31;100615.12;;;18.92;69.44
62926;BME280;55732;52.248;-0.844;2022-07-24T01:33:57;100612.19;;;18.89;69.48
62926;BME280;55732;52.248;-0.844;2022-07-24T01:36:22;100607.34;;;18.86;69.60
62926;BME280;55732;52.248;-0.844;2022-07-24T01:38:47;100601.71;;;18.83;69.79
62926;BME280;55732;52.248;-0.844;2022-07-24T01:41:13;100597.70;;;18.80;69.82
62926;BME280;55732;52.248;-0.844;2022-07-24T01:43:38;100591.52;;;18.78;69.87
62926;BME280;55732;52.248;-0.844;2022-07-24T01:46:04;100594.10;;;18.76;69.99
62926;BME280;55732;52.248;-0.844;2022-07-24T01:48:29;100591.96;;;18.76;69.98
62926;BME280;55732;52.248;-0.844;2022-07-24T01:50:55;100589.95;;;18.77;70.00
62926;BME280;55732;52.248;-0.844;2022-07-24T01:53:20;100587.80;;;18.77;70.14
62926;BME280;55732;52.248;-0.844;2022-07-24T01:55:46;100586.40;;;18.76;70.11
62926;BME280;55732;52.248;-0.844;2022-07-24T01:58:14;100584.42;;;18.77;70.04
62926;BME280;55732;52.248;-0.844;2022-07-24T02:00:39;100586.48;;;18.80;70.04
62926;BME280;55732;52.248;-0.844;2022-07-24T02:03:04;100585.23;;;18.80;70.03
62926;BME280;55732;52.248;-0.844;2022-07-24T02:05:30;100587.27;;;18.83;69.99
62926;BME280;55732;52.248;-0.844;2022-07-24T02:07:58;100590.27;;;18.83;69.94
62926;BME280;55732;52.248;-0.844;2022-07-24T02:10:26;100593.61;;;18.85;70.01
62926;BME280;55732;52.248;-0.844;2022-07-24T02:12:52;100595.59;;;18.85;70.28
62926;BME280;55732;52.248;-0.844;2022-07-24T02:15:17;100590.27;;;18.83;70.11
62926;BME280;55732;52.248;-0.844;2022-07-24T02:17:51;100587.59;;;18.84;70.25
62926;BME280;55732;52.248;-0.844;2022-07-24T02:20:17;100584.55;;;18.84;70.64
62926;BME280;55732;52.248;-0.844;2022-07-24T02:22:43;100585.42;;;18.79;71.08
62926;BME280;55732;52.248;-0.844;2022-07-24T02:25:10;100584.58;;;18.73;71.55
62926;BME280;55732;52.248;-0.844;2022-07-24T02:27:36;100584.38;;;18.68;71.77
62926;BME280;55732;52.248;-0.844;2022-07-24T02:30:04;100588.77;;;18.65;71.93
62926;BME280;55732;52.248;-0.844;2022-07-24T02:32:29;100590.27;;;18.63;71.86
62926;BME280;55732;52.248;-0.844;2022-07-24T02:34:55;100585.85;;;18.62;71.88
62926;BME280;55732;52.248;-0.844;2022-07-24T02:37:20;100582.29;;;18.62;71.85
62926;BME280;55732;52.248;-0.844;2022-07-24T02:39:46;100583.67;;;18.63;71.89
62926;BME280;55732;52.248;-0.844;2022-07-24T02:42:11;100579.66;;;18.65;71.74
62926;BME280;55732;52.248;-0.844;2022-07-24T02:44:36;100575.84;;;18.67;71.47
62926;BME280;55732;52.248;-0.844;2022-07-24T02:47:02;100575.12;;;18.67;71.55
62926;BME280;55732;52.248;-0.844;2022-07-24T02:49:27;100572.73;;;18.69;71.59
62926;BME280;55732;52.248;-0.844;2022-07-24T02:51:53;100578.52;;;18.73;71.42
62926;BME280;55732;52.248;-0.844;2022-07-24T02:54:18;100577.70;;;18.75;71.38
62926;BME280;55732;52.248;-0.844;2022-07-24T02:56:43;100578.17;;;18.77;71.31
62926;BME280;55732;52.248;-0.844;2022-07-24T02:59:09;100581.17;;;18.78;71.30
62926;BME280;55732;52.248;-0.844;2022-07-24T03:01:34;100581.69;;;18.79;71.21
62926;BME280;55732;52.248;-0.844;2022-07-24T03:04:00;100580.23;;;18.80;71.22
62926;BME280;55732;52.248;-0.844;2022-07-24T03:06:25;100575.22;;;18.80;71.26
62926;BME280;55732;52.248;-0.844;2022-07-24T03:08:50;100571.23;;;18.82;71.01
62926;BME280;55732;52.248;-0.844;2022-07-24T03:11:16;100572.27;;;18.83;71.23
62926;BME280;55732;52.248;-0.844;2022-07-24T03:13:41;100576.14;;;18.85;71.27
62926;BME280;55732;52.248;-0.844;2022-07-24T03:16:07;100577.36;;;18.86;71.18
62926;BME280;55732;52.248;-0.844;2022-07-24T03:18:32;100580.76;;;18.86;71.23
62926;BME280;55732;52.248;-0.844;2022-07-24T03:20:58;100582.70;;;18.86;71.34
62926;BME280;55732;52.248;-0.844;2022-07-24T03:23:23;100585.85;;;18.88;71.44
62926;BME280;55732;52.248;-0.844;2022-07-24T03:25:49;100590.93;;;18.90;71.44
62926;BME280;55732;52.248;-0.844;2022-07-24T03:28:15;100588.92;;;18.91;71.55
62926;BME280;55732;52.248;-0.844;2022-07-24T03:30:40;100589.44;;;18.92;71.68
62926;BME280;55732;52.248;-0.844;2022-07-24T03:33:05;100586.84;;;18.89;71.69
62926;BME280;55732;52.248;-0.844;2022-07-24T03:35:31;100589.38;;;18.88;71.68
62926;BME280;55732;52.248;-0.844;2022-07-24T03:37:56;100584.16;;;18.89;71.90
62926;BME280;55732;52.248;-0.844;2022-07-24T03:40:23;100587.45;;;18.88;71.91
62926;BME280;55732;52.248;-0.844;2022-07-24T03:42:48;100586.96;;;18.87;72.00
62926;BME280;55732;52.248;-0.844;2022-07-24T03:45:14;100581.84;;;18.85;72.31
62926;BME280;55732;52.248;-0.844;2022-07-24T03:47:39;100583.84;;;18.84;72.33
62926;BME280;55732;52.248;-0.844;2022-07-24T03:50:05;100573.07;;;18.81;72.50
62926;BME280;55732;52.248;-0.844;2022-07-24T03:52:31;100570.05;;;18.80;72.56
62926;BME280;55732;52.248;-0.844;2022-07-24T03:54:56;100572.42;;;18.79;72.77
62926;BME280;55732;52.248;-0.844;2022-07-24T03:57:22;100570.16;;;18.77;72.86
62926;BME280;55732;52.248;-0.844;2022-07-24T03:59:48;100567.43;;;18.73;73.03
62926;BME280;55732;52.248;-0.844;2022-07-24T04:02:13;100567.91;;;18.70;73.36
62926;BME280;55732;52.248;-0.844;2022-07-24T04:04:39;100569.79;;;18.67;73.54
62926;BME280;55732;52.248;-0.844;2022-07-24T04:07:04;100563.67;;;18.64;73.54
62926;BME280;55732;52.248;-0.844;2022-07-24T04:09:30;100564.09;;;18.62;73.85
62926;BME280;55732;52.248;-0.844;2022-07-24T04:11:55;100556.11;;;18.61;73.84
62926;BME280;55732;52.248;-0.844;2022-07-24T04:14:21;100561.33;;;18.59;73.97
62926;BME280;55732;52.248;-0.844;2022-07-24T04:16:46;100558.89;;;18.57;74.20
62926;BME280;55732;52.248;-0.844;2022-07-24T04:19:12;100558.20;;;18.56;74.25
62926;BME280;55732;52.248;-0.844;2022-07-24T04:21:38;100556.49;;;18.53;74.37
62926;BME280;55732;52.248;-0.844;2022-07-24T04:24:04;100558.81;;;18.53;74.53
62926;BME280;55732;52.248;-0.844;2022-07-24T04:26:29;100561.13;;;18.53;74.58
62926;BME280;55732;52.248;-0.844;2022-07-24T04:28:55;100559.13;;;18.54;74.61
62926;BME280;55732;52.248;-0.844;2022-07-24T04:31:20;100559.70;;;18.53;74.76
62926;BME280;55732;52.248;-0.844;2022-07-24T04:33:46;100560.30;;;18.52;74.79
62926;BME280;55732;52.248;-0.844;2022-07-24T04:36:12;100558.70;;;18.52;74.76
62926;BME280;55732;52.248;-0.844;2022-07-24T04:38:37;100558.37;;;18.52;74.90
62926;BME280;55732;52.248;-0.844;2022-07-24T04:41:03;100560.66;;;18.52;75.03
62926;BME280;55732;52.248;-0.844;2022-07-24T04:43:28;100554.17;;;18.53;75.15
62926;BME280;55732;52.248;-0.844;2022-07-24T04:45:54;100558.23;;;18.55;75.13
62926;BME280;55732;52.248;-0.844;2022-07-24T04:48:20;100560.68;;;18.56;75.28
62926;BME280;55732;52.248;-0.844;2022-07-24T04:50:45;100560.30;;;18.57;75.04
62926;BME280;55732;52.248;-0.844;2022-07-24T04:53:11;100558.73;;;18.56;75.17
62926;BME280;55732;52.248;-0.844;2022-07-24T04:55:37;100561.28;;;18.54;75.31
62926;BME280;55732;52.248;-0.844;2022-07-24T04:58:02;100565.15;;;18.51;75.36
62926;BME280;55732;52.248;-0.844;2022-07-24T05:00:28;100564.27;;;18.51;75.54
62926;BME280;55732;52.248;-0.844;2022-07-24T05:02:54;100564.65;;;18.50;75.67
62926;BME280;55732;52.248;-0.844;2022-07-24T05:05:19;100564.87;;;18.49;75.75
62926;BME280;55732;52.248;-0.844;2022-07-24T05:07:45;100565.52;;;18.51;75.82
62926;BME280;55732;52.248;-0.844;2022-07-24T05:10:10;100566.77;;;18.51;75.76
62926;BME280;55732;52.248;-0.844;2022-07-24T05:12:36;100565.38;;;18.50;75.93
62926;BME280;55732;52.248;-0.844;2022-07-24T05:15:03;100564.20;;;18.48;75.89
62926;BME280;55732;52.248;-0.844;2022-07-24T05:17:29;100560.88;;;18.46;76.06
62926;BME280;55732;52.248;-0.844;2022-07-24T05:19:54;100561.88;;;18.47;76.14
62926;BME280;55732;52.248;-0.844;2022-07-24T05:22:20;100562.15;;;18.50;76.07
62926;BME280;55732;52.248;-0.844;2022-07-24T05:24:45;100561.79;;;18.50;76.10
62926;BME280;55732;52.248;-0.844;2022-07-24T05:27:11;100562.34;;;18.50;76.15
62926;BME280;55732;52.248;-0.844;2022-07-24T05:29:36;100560.03;;;18.49;76.19
62926;BME280;55732;52.248;-0.844;2022-07-24T05:32:01;100560.02;;;18.50;76.27
62926;BME280;55732;52.248;-0.844;2022-07-24T05:34:27;100554.77;;;18.52;76.25
62926;BME280;55732;52.248;-0.844;2022-07-24T05:36:52;100556.41;;;18.56;76.18
62926;BME280;55732;52.248;-0.844;2022-07-24T05:39:18;100556.05;;;18.62;76.04
62926;BME280;55732;52.248;-0.844;2022-07-24T05:41:43;100553.23;;;18.66;75.98
62926;BME280;55732;52.248;-0.844;2022-07-24T05:44:08;100557.23;;;18.69;75.98
62926;BME280;55732;52.248;-0.844;2022-07-24T05:46:34;100554.65;;;18.71;75.92
62926;BME280;55732;52.248;-0.844;2022-07-24T05:48:59;100555.39;;;18.76;75.88
62926;BME280;55732;52.248;-0.844;2022-07-24T05:51:25;100554.99;;;18.82;75.76
62926;BME280;55732;52.248;-0.844;2022-07-24T05:53:51;100552.48;;;18.88;75.61
62926;BME280;55732;52.248;-0.844;2022-07-24T05:56:16;100551.10;;;18.91;75.58
62926;BME280;55732;52.248;-0.844;2022-07-24T05:58:42;100548.98;;;18.91;75.49
62926;BME280;55732;52.248;-0.844;2022-07-24T06:01:07;100546.48;;;18.90;75.57
62926;BME280;55732;52.248;-0.844;2022-07-24T06:03:33;100550.36;;;18.92;75.44
62926;BME280;55732;52.248;-0.844;2022-07-24T06:05:58;100550.29;;;18.94;75.53
62926;BME280;55732;52.248;-0.844;2022-07-24T06:08:23;100545.27;;;18.99;75.40
62926;BME280;55732;52.248;-0.844;2022-07-24T06:10:49;100542.77;;;19.04;75.28
62926;BME280;55732;52.248;-0.844;2022-07-24T06:13:14;100541.48;;;19.05;75.39
62926;BME280;55732;52.248;-0.844;2022-07-24T06:15:40;100542.91;;;19.10;75.27
62926;BME280;55732;52.248;-0.844;2022-07-24T06:18:05;100533.30;;;19.14;75.18
62926;BME280;55732;52.248;-0.844;2022-07-24T06:20:31;100530.16;;;19.17;75.03
62926;BME280;55732;52.248;-0.844;2022-07-24T06:22:56;100530.80;;;19.19;74.98
62926;BME280;55732;52.248;-0.844;2022-07-24T06:25:22;100534.05;;;19.18;74.96
62926;BME280;55732;52.248;-0.844;2022-07-24T06:27:49;100528.05;;;19.16;75.00
62926;BME280;55732;52.248;-0.844;2022-07-24T06:30:19;100532.73;;;19.15;74.98
62926;BME280;55732;52.248;-0.844;2022-07-24T06:32:47;100532.94;;;19.14;75.20
62926;BME280;55732;52.248;-0.844;2022-07-24T06:35:12;100533.83;;;19.14;75.10
62926;BME280;55732;52.248;-0.844;2022-07-24T06:37:38;100534.94;;;19.13;75.21
62926;BME280;55732;52.248;-0.844;2022-07-24T06:40:04;100541.44;;;19.11;75.23
62926;BME280;55732;52.248;-0.844;2022-07-24T06:42:30;100541.71;;;19.09;75.35
62926;BME280;55732;52.248;-0.844;2022-07-24T06:44:55;100547.66;;;19.07;75.46
62926;BME280;55732;52.248;-0.844;2022-07-24T06:47:21;100552.90;;;19.10;75.49
62926;BME280;55732;52.248;-0.844;2022-07-24T06:49:46;100550.75;;;19.15;75.38
62926;BME280;55732;52.248;-0.844;2022-07-24T06:52:12;100555.30;;;19.18;75.45
62926;BME280;55732;52.248;-0.844;2022-07-24T06:54:37;100547.80;;;19.18;75.61
62926;BME280;55732;52.248;-0.844;2022-07-24T06:57:03;100545.98;;;19.19;75.46
62926;BME280;55732;52.248;-0.844;2022-07-24T06:59:29;100543.39;;;19.22;75.45
62926;BME280;55732;52.248;-0.844;2022-07-24T07:01:54;100540.15;;;19.26;75.32
62926;BME280;55732;52.248;-0.844;2022-07-24T07:04:20;100534.52;;;19.29;75.36
62926;BME280;55732;52.248;-0.844;2022-07-24T07:06:45;100534.95;;;19.36;75.34
62926;BME280;55732;52.248;-0.844;2022-07-24T07:09:11;100535.82;;;19.42;75.26
62926;BME280;55732;52.248;-0.844;2022-07-24T07:11:36;100538.14;;;19.42;75.19
62926;BME280;55732;52.248;-0.844;2022-07-24T07:14:02;100537.77;;;19.42;75.17
62926;BME280;55732;52.248;-0.844;2022-07-24T07:16:27;100537.00;;;19.44;75.20
62926;BME280;55732;52.248;-0.844;2022-07-24T07:18:53;100536.59;;;19.45;75.12
62926;BME280;55732;52.248;-0.844;2022-07-24T07:21:18;100531.14;;;19.47;75.20
62926;BME280;55732;52.248;-0.844;2022-07-24T07:23:44;100528.34;;;19.56;75.15
62926;BME280;55732;52.248;-0.844;2022-07-24T07:26:09;100520.15;;;19.69;74.87
62926;BME280;55732;52.248;-0.844;2022-07-24T07:28:35;100520.95;;;19.75;74.64
62926;BME280;55732;52.248;-0.844;2022-07-24T07:31:00;100522.48;;;19.82;74.44
62926;BME280;55732;52.248;-0.844;2022-07-24T07:33:26;100518.82;;;19.89;74.40
62926;BME280;55732;52.248;-0.844;2022-07-24T07:35:52;100519.11;;;19.95;74.26
62926;BME280;55732;52.248;-0.844;2022-07-24T07:38:18;100519.71;;;19.97;74.32
62926;BME280;55732;52.248;-0.844;2022-07-24T07:40:43;100521.83;;;20.02;74.00
62926;BME280;55732;52.248;-0.844;2022-07-24T07:43:09;100521.30;;;20.06;73.85
62926;BME280;55732;52.248;-0.844;2022-07-24T07:45:35;100519.54;;;20.06;73.80
62926;BME280;55732;52.248;-0.844;2022-07-24T07:48:00;100523.60;;;20.07;73.77
62926;BME280;55732;52.248;-0.844;2022-07-24T07:50:26;100521.66;;;20.10;73.73
62926;BME280;55732;52.248;-0.844;2022-07-24T07:52:51;100520.15;;;20.17;73.61
62926;BME280;55732;52.248;-0.844;2022-07-24T07:55:16;100517.88;;;20.19;73.36
62926;BME280;55732;52.248;-0.844;2022-07-24T07:57:42;100520.31;;;20.21;73.42
62926;BME280;55732;52.248;-0.844;2022-07-24T08:00:09;100518.76;;;20.25;73.32
62926;BME280;55732;52.248;-0.844;2022-07-24T08:02:36;100513.13;;;20.27;73.02
62926;BME280;55732;52.248;-0.844;2022-07-24T08:05:02;100510.28;;;20.35;72.94
62926;BME280;55732;52.248;-0.844;2022-07-24T08:07:27;100511.32;;;20.40;72.63
62926;BME280;55732;52.248;-0.844;2022-07-24T08:09:52;100509.27;;;20.46;72.51
62926;BME280;55732;52.248;-0.844;2022-07-24T08:12:18;100513.67;;;20.52;72.38
62926;BME280;55732;52.248;-0.844;2022-07-24T08:14:43;100512.60;;;20.60;72.15
62926;BME280;55732;52.248;-0.844;2022-07-24T08:17:09;100516.21;;;20.68;72.12
62926;BME280;55732;52.248;-0.844;2022-07-24T08:19:34;100521.77;;;20.79;71.73
62926;BME280;55732;52.248;-0.844;2022-07-24T08:22:00;100519.63;;;20.91;71.47
62926;BME280;55732;52.248;-0.844;2022-07-24T08:24:26;100518.48;;;21.12;71.16
62926;BME280;55732;52.248;-0.844;2022-07-24T08:26:51;100524.61;;;21.24;70.99
62926;BME280;55732;52.248;-0.844;2022-07-24T08:29:17;100527.52;;;21.27;70.53
62926;BME280;55732;52.248;-0.844;2022-07-24T08:31:43;100522.83;;;21.24;70.12
62926;BME280;55732;52.248;-0.844;2022-07-24T08:34:08;100527.83;;;21.15;70.18
62926;BME280;55732;52.248;-0.844;2022-07-24T08:36:34;100525.94;;;21.13;70.28
62926;BME280;55732;52.248;-0.844;2022-07-24T08:39:00;100522.09;;;21.16;70.16
62926;BME280;55732;52.248;-0.844;2022-07-24T08:41:30;100522.13;;;21.27;70.00
62926;BME280;55732;52.248;-0.844;2022-07-24T08:43:58;100521.45;;;21.38;69.83
62926;BME280;55732;52.248;-0.844;2022-07-24T08:46:25;100519.20;;;21.51;69.53
62926;BME280;55732;52.248;-0.844;2022-07-24T08:48:52;100519.73;;;21.59;69.20
62926;BME280;55732;52.248;-0.844;2022-07-24T08:51:18;100516.98;;;21.75;68.96
62926;BME280;55732;52.248;-0.844;2022-07-24T08:53:45;100516.43;;;21.94;68.56
62926;BME280;55732;52.248;-0.844;2022-07-24T08:56:10;100514.06;;;22.06;67.96
62926;BME280;55732;52.248;-0.844;2022-07-24T08:58:40;100511.84;;;22.15;68.04
62926;BME280;55732;52.248;-0.844;2022-07-24T09:01:07;100509.55;;;22.31;67.85
62926;BME280;55732;52.248;-0.844;2022-07-24T09:03:44;100507.89;;;22.56;67.09
62926;BME280;55732;52.248;-0.844;2022-07-24T09:06:10;100504.50;;;22.87;66.32
62926;BME280;55732;52.248;-0.844;2022-07-24T09:08:37;100498.52;;;23.02;65.77
62926;BME280;55732;52.248;-0.844;2022-07-24T09:11:04;100491.44;;;23.16;65.42
62926;BME280;55732;52.248;-0.844;2022-07-24T09:13:31;100500.09;;;23.38;64.61
62926;BME280;55732;52.248;-0.844;2022-07-24T09:16:21;100496.33;;;23.67;63.73
62926;BME280;55732;52.248;-0.844;2022-07-24T09:19:07;100496.34;;;23.70;63.60
62926;BME280;55732;52.248;-0.844;2022-07-24T09:21:36;100496.95;;;23.75;63.07
62926;BME280;55732;52.248;-0.844;2022-07-24T09:26:54;100490.25;;;23.73;62.57
62926;BME280;55732;52.248;-0.844;2022-07-24T09:29:25;100483.63;;;23.85;62.50
62926;BME280;55732;52.248;-0.844;2022-07-24T09:34:20;100486.20;;;24.03;61.79
62926;BME280;55732;52.248;-0.844;2022-07-24T09:37:01;100487.58;;;23.94;61.67
62926;BME280;55732;52.248;-0.844;2022-07-24T09:39:29;100487.33;;;23.99;61.57
62926;BME280;55732;52.248;-0.844;2022-07-24T09:41:56;100485.35;;;24.08;61.29
62926;BME280;55732;52.248;-0.844;2022-07-24T09:44:22;100482.27;;;24.62;60.08
62926;BME280;55732;52.248;-0.844;2022-07-24T09:47:07;100478.79;;;25.58;58.04
62926;BME280;55732;52.248;-0.844;2022-07-24T09:49:35;100473.21;;;25.49;58.00
62926;BME280;55732;52.248;-0.844;2022-07-24T09:54:35;100471.98;;;25.98;56.73
62926;BME280;55732;52.248;-0.844;2022-07-24T09:57:21;100467.02;;;27.80;53.49
62926;BME280;55732;52.248;-0.844;2022-07-24T09:59:49;100464.42;;;28.57;51.85
62926;BME280;55732;52.248;-0.844;2022-07-24T10:02:16;100466.55;;;28.78;51.19
62926;BME280;55732;52.248;-0.844;2022-07-24T10:04:44;100460.98;;;29.21;49.99
62926;BME280;55732;52.248;-0.844;2022-07-24T10:07:11;100453.30;;;29.22;49.23
62926;BME280;55732;52.248;-0.844;2022-07-24T10:09:44;100453.35;;;29.28;48.88
62926;BME280;55732;52.248;-0.844;2022-07-24T10:12:21;100459.77;;;29.50;48.66
62926;BME280;55732;52.248;-0.844;2022-07-24T10:14:48;100458.02;;;29.35;48.10
62926;BME280;55732;52.248;-0.844;2022-07-24T10:17:16;100459.74;;;29.29;48.06
62926;BME280;55732;52.248;-0.844;2022-07-24T10:19:46;100453.79;;;29.48;47.55
62926;BME280;55732;52.248;-0.844;2022-07-24T10:22:16;100456.73;;;29.29;47.81
62926;BME280;55732;52.248;-0.844;2022-07-24T10:24:56;100455.64;;;29.27;47.90
62926;BME280;55732;52.248;-0.844;2022-07-24T10:27:23;100456.77;;;29.10;47.39
62926;BME280;55732;52.248;-0.844;2022-07-24T10:29:52;100452.34;;;28.91;47.79
62926;BME280;55732;52.248;-0.844;2022-07-24T10:32:18;100455.48;;;28.97;47.66
62926;BME280;55732;52.248;-0.844;2022-07-24T10:35:13;100447.06;;;29.14;47.00
62926;BME280;55732;52.248;-0.844;2022-07-24T10:37:45;100448.95;;;29.02;47.65
62926;BME280;55732;52.248;-0.844;2022-07-24T10:45:39;100444.07;;;29.04;47.24
62926;BME280;55732;52.248;-0.844;2022-07-24T11:01:49;100424.88;;;28.49;48.25
62926;BME280;55732;52.248;-0.844;2022-07-24T11:06:50;100419.95;;;28.67;48.43
62926;BME280;55732;52.248;-0.844;2022-07-24T11:09:17;100415.27;;;28.93;47.93
62926;BME280;55732;52.248;-0.844;2022-07-24T11:17:41;100404.07;;;29.27;46.52
62926;BME280;55732;52.248;-0.844;2022-07-24T11:20:13;100400.10;;;29.40;46.38
62926;BME280;55732;52.248;-0.844;2022-07-24T11:22:44;100396.41;;;29.59;46.18
62926;BME280;55732;52.248;-0.844;2022-07-24T11:25:14;100389.94;;;29.64;46.28
62926;BME280;55732;52.248;-0.844;2022-07-24T11:27:51;100387.12;;;29.70;45.79
62926;BME280;55732;52.248;-0.844;2022-07-24T11:30:19;100388.88;;;29.84;45.45
62926;BME280;55732;52.248;-0.844;2022-07-24T11:32:45;100385.17;;;29.91;45.30
62926;BME280;55732;52.248;-0.844;2022-07-24T11:35:11;100377.65;;;29.96;45.29
62926;BME280;55732;52.248;-0.844;2022-07-24T11:37:39;100376.06;;;30.04;45.05
62926;BME280;55732;52.248;-0.844;2022-07-24T11:40:06;100370.80;;;30.00;45.27
62926;BME280;55732;52.248;-0.844;2022-07-24T11:42:33;100368.57;;;29.96;45.39
62926;BME280;55732;52.248;-0.844;2022-07-24T11:44:59;100360.27;;;29.95;45.19
62926;BME280;55732;52.248;-0.844;2022-07-24T11:47:27;100358.58;;;30.02;44.99
62926;BME280;55732;52.248;-0.844;2022-07-24T11:50:01;100352.52;;;29.99;44.33
62926;BME280;55732;52.248;-0.844;2022-07-24T11:52:35;100341.55;;;30.13;44.09
62926;BME280;55732;52.248;-0.844;2022-07-24T11:55:08;100338.46;;;30.35;43.67
62926;BME280;55732;52.248;-0.844;2022-07-24T11:57:38;100334.92;;;30.46;42.74
62926;BME280;55732;52.248;-0.844;2022-07-24T12:00:07;100333.18;;;30.36;41.47
62926;BME280;55732;52.248;-0.844;2022-07-24T12:02:35;100324.19;;;30.28;41.77
62926;BME280;55732;52.248;-0.844;2022-07-24T12:05:01;100321.48;;;30.32;42.01
62926;BME280;55732;52.248;-0.844;2022-07-24T12:07:27;100319.16;;;30.34;41.67
62926;BME280;55732;52.248;-0.844;2022-07-24T12:09:56;100312.70;;;30.24;41.66
62926;BME280;55732;52.248;-0.844;2022-07-24T12:14:52;100309.02;;;30.17;39.31
62926;BME280;55732;52.248;-0.844;2022-07-24T12:17:18;100310.23;;;30.11;39.14
62926;BME280;55732;52.248;-0.844;2022-07-24T12:19:51;100317.08;;;30.18;38.81
62926;BME280;55732;52.248;-0.844;2022-07-24T12:22:18;100306.09;;;30.22;38.29
62926;BME280;55732;52.248;-0.844;2022-07-24T12:24:44;100305.09;;;30.19;37.97
62926;BME280;55732;52.248;-0.844;2022-07-24T12:27:09;100302.23;;;30.24;37.35
62926;BME280;55732;52.248;-0.844;2022-07-24T12:29:42;100296.02;;;30.26;37.34
62926;BME280;55732;52.248;-0.844;2022-07-24T12:32:18;100290.91;;;30.31;37.07
62926;BME280;55732;52.248;-0.844;2022-07-24T12:34:46;100288.12;;;30.44;37.43
62926;BME280;55732;52.248;-0.844;2022-07-24T12:37:19;100289.04;;;30.56;37.22
62926;BME280;55732;52.248;-0.844;2022-07-24T12:39:46;100291.74;;;30.58;36.82
62926;BME280;55732;52.248;-0.844;2022-07-24T12:42:12;100294.17;;;30.43;36.88
62926;BME280;55732;52.248;-0.844;2022-07-24T12:44:42;100296.77;;;30.22;37.08
62926;BME280;55732;52.248;-0.844;2022-07-24T12:47:08;100292.75;;;30.10;36.83
62926;BME280;55732;52.248;-0.844;2022-07-24T12:49:41;100288.16;;;30.02;36.99
62926;BME280;55732;52.248;-0.844;2022-07-24T12:52:19;100285.70;;;30.05;36.95
62926;BME280;55732;52.248;-0.844;2022-07-24T12:54:46;100271.52;;;30.16;36.72
62926;BME280;55732;52.248;-0.844;2022-07-24T12:57:13;100272.34;;;30.21;36.58
62926;BME280;55732;52.248;-0.844;2022-07-24T12:59:43;100272.08;;;30.18;36.69
62926;BME280;55732;52.248;-0.844;2022-07-24T13:02:15;100267.30;;;30.19;36.76
62926;BME280;55732;52.248;-0.844;2022-07-24T13:04:42;100259.84;;;30.27;36.79
62926;BME280;55732;52.248;-0.844;2022-07-24T13:07:09;100256.24;;;30.36;36.96
62926;BME280;55732;52.248;-0.844;2022-07-24T13:09:35;100252.55;;;30.39;37.11
62926;BME280;55732;52.248;-0.844;2022-07-24T13:12:01;100254.89;;;30.41;37.27
62926;BME280;55732;52.248;-0.844;2022-07-24T13:14:27;100248.63;;;30.44;37.09
62926;BME280;55732;52.248;-0.844;2022-07-24T13:17:00;100249.36;;;30.30;37.19